sensor_id;sensor_type;location;lat;lon;timestamp;pressure;altitude;pressure_sealevel;temperature;humidity
55317;BME280;41178;48.956;8.130;2023-06-22T00:00:09;99764.78;;;24.79;49.04
55317;BME280;41178;48.956;8.130;2023-06-22T00:05:13;99823.81;;;22.20;54.08
55317;BME280;41178;48.956;8.130;2023-06-22T00:10:15;99992.63;;;21.82;55.27
55317;BME280;41178;48.956;8.130;2023-06-22T00:15:17;100049.56;;;22.87;54.51
55317;BME280;41178;48.956;8.130;2023-06-22T00:20:19;99821.25;;;23.82;53.87
55317;BME280;41178;48.956;8.130;2023-06-22T00:25:20;99852.69;;;24.21;52.74
55317;BME280;41178;48.956;8.130;2023-06-22T00:30:22;99839.00;;;23.01;55.41
55317;BME280;41178;48.956;8.130;2023-06-22T00:35:25;99829.06;;;20.56;60.90
55317;BME280;41178;48.956;8.130;2023-06-22T00:40:31;99787.66;;;21.65;58.50
55317;BME280;41178;48.956;8.130;2023-06-22T00:45:33;99835.06;;;21.41;58.70
55317;BME280;41178;48.956;8.130;2023-06-22T00:50:35;99841.97;;;21.05;59.36
55317;BME280;41178;48.956;8.130;2023-06-22T00:55:41;99853.88;;;19.63;61.82
55317;BME280;41178;48.956;8.130;2023-06-22T01:00:45;99836.56;;;21.32;58.50
55317;BME280;41178;48.956;8.130;2023-06-22T01:05:47;99840.16;;;22.20;56.27
55317;BME280;41178;48.956;8.130;2023-06-22T01:10:55;99849.88;;;21.78;56.60
55317;BME280;41178;48.956;8.130;2023-06-22T01:16:12;99842.25;;;22.07;55.85
55317;BME280;41178;48.956;8.130;2023-06-22T01:21:19;99838.19;;;24.05;52.01
55317;BME280;41178;48.956;8.130;2023-06-22T01:27:12;99839.84;;;24.31;51.38
55317;BME280;41178;48.956;8.130;2023-06-22T01:31:48;99856.63;;;23.36;53.71
55317;BME280;41178;48.956;8.130;2023-06-22T01:36:52;99879.88;;;22.90;53.04
55317;BME280;41178;48.956;8.130;2023-06-22T01:41:54;99870.06;;;21.82;55.95
55317;BME280;41178;48.956;8.130;2023-06-22T01:46:56;99851.81;;;21.55;57.69
55317;BME280;41178;48.956;8.130;2023-06-22T01:51:59;99833.25;;;21.79;56.74
55317;BME280;41178;48.956;8.130;2023-06-22T01:57:01;99803.47;;;24.05;52.57
55317;BME280;41178;48.956;8.130;2023-06-22T02:02:11;99826.00;;;24.93;50.08
55317;BME280;41178;48.956;8.130;2023-06-22T02:07:17;99869.44;;;21.75;56.47
55317;BME280;41178;48.956;8.130;2023-06-22T02:12:22;99817.66;;;23.66;53.09
55317;BME280;41178;48.956;8.130;2023-06-22T02:17:26;99853.25;;;22.23;55.00
55317;BME280;41178;48.956;8.130;2023-06-22T02:22:28;99820.34;;;22.77;53.64
55317;BME280;41178;48.956;8.130;2023-06-22T02:27:30;99806.47;;;23.93;51.75
55317;BME280;41178;48.956;8.130;2023-06-22T02:32:31;99790.59;;;23.54;52.73
55317;BME280;41178;48.956;8.130;2023-06-22T02:37:38;99786.44;;;24.49;50.47
55317;BME280;41178;48.956;8.130;2023-06-22T02:42:43;99794.63;;;23.16;53.41
55317;BME280;41178;48.956;8.130;2023-06-22T02:47:45;99828.88;;;21.24;56.44
55317;BME280;41178;48.956;8.130;2023-06-22T02:52:47;99803.78;;;22.41;54.16
55317;BME280;41178;48.956;8.130;2023-06-22T02:57:49;99770.09;;;23.41;52.94
55317;BME280;41178;48.956;8.130;2023-06-22T03:02:54;99761.41;;;24.16;51.36
55317;BME280;41178;48.956;8.130;2023-06-22T03:07:56;99760.00;;;24.04;51.88
55317;BME280;41178;48.956;8.130;2023-06-22T03:12:57;99823.72;;;22.95;52.03
55317;BME280;41178;48.956;8.130;2023-06-22T03:17:59;99830.50;;;21.47;55.78
55317;BME280;41178;48.956;8.130;2023-06-22T03:23:01;99819.69;;;21.57;56.56
55317;BME280;41178;48.956;8.130;2023-06-22T03:28:03;99743.63;;;23.37;53.02
55317;BME280;41178;48.956;8.130;2023-06-22T03:33:05;99799.66;;;21.96;55.10
55317;BME280;41178;48.956;8.130;2023-06-22T03:38:07;99754.53;;;22.53;54.62
55317;BME280;41178;48.956;8.130;2023-06-22T03:43:09;99765.31;;;22.38;55.13
55317;BME280;41178;48.956;8.130;2023-06-22T03:48:11;99775.19;;;22.44;53.98
55317;BME280;41178;48.956;8.130;2023-06-22T03:53:13;99750.84;;;22.27;55.12
55317;BME280;41178;48.956;8.130;2023-06-22T03:58:16;99763.13;;;21.59;56.85
55317;BME280;41178;48.956;8.130;2023-06-22T04:03:18;99750.47;;;21.81;56.56
55317;BME280;41178;48.956;8.130;2023-06-22T04:08:21;99727.78;;;23.23;53.24
55317;BME280;41178;48.956;8.130;2023-06-22T04:13:22;99728.03;;;22.48;54.95
55317;BME280;41178;48.956;8.130;2023-06-22T04:18:24;99757.41;;;22.36;54.51
55317;BME280;41178;48.956;8.130;2023-06-22T04:23:26;99760.06;;;22.21;54.98
55317;BME280;41178;48.956;8.130;2023-06-22T04:28:28;99745.13;;;22.86;53.54
55317;BME280;41178;48.956;8.130;2023-06-22T04:33:30;99733.16;;;23.03;53.60
55317;BME280;41178;48.956;8.130;2023-06-22T04:38:32;99757.97;;;22.43;54.13
55317;BME280;41178;48.956;8.130;2023-06-22T04:43:34;99740.97;;;22.74;54.17
55317;BME280;41178;48.956;8.130;2023-06-22T04:48:36;99745.88;;;22.66;54.45
55317;BME280;41178;48.956;8.130;2023-06-22T04:53:38;99717.16;;;22.53;55.25
55317;BME280;41178;48.956;8.130;2023-06-22T04:58:42;99718.00;;;23.74;52.64
55317;BME280;41178;48.956;8.130;2023-06-22T05:05:22;99705.53;;;22.84;54.63
55317;BME280;41178;48.956;8.130;2023-06-22T05:10:24;99706.63;;;22.78;55.05
55317;BME280;41178;48.956;8.130;2023-06-22T05:15:26;99684.47;;;22.64;55.99
55317;BME280;41178;48.956;8.130;2023-06-22T05:20:32;99715.59;;;21.77;56.10
55317;BME280;41178;48.956;8.130;2023-06-22T05:25:35;99712.72;;;21.57;56.95
55317;BME280;41178;48.956;8.130;2023-06-22T05:30:38;99677.22;;;23.00;54.38
55317;BME280;41178;48.956;8.130;2023-06-22T05:35:39;99661.44;;;23.18;54.82
55317;BME280;41178;48.956;8.130;2023-06-22T05:40:41;99684.56;;;22.79;54.43
55317;BME280;41178;48.956;8.130;2023-06-22T05:45:43;99696.91;;;22.34;55.67
55317;BME280;41178;48.956;8.130;2023-06-22T05:50:45;99673.72;;;23.72;53.42
55317;BME280;41178;48.956;8.130;2023-06-22T05:55:47;99663.06;;;23.80;53.74
55317;BME280;41178;48.956;8.130;2023-06-22T06:00:49;99683.03;;;23.45;54.24
55317;BME280;41178;48.956;8.130;2023-06-22T06:05:51;99656.53;;;23.71;53.67
55317;BME280;41178;48.956;8.130;2023-06-22T06:10:52;99658.38;;;23.91;54.09
55317;BME280;41178;48.956;8.130;2023-06-22T06:15:56;99714.69;;;21.99;56.83
55317;BME280;41178;48.956;8.130;2023-06-22T06:20:58;99681.38;;;23.29;54.49
55317;BME280;41178;48.956;8.130;2023-06-22T06:26:00;99693.78;;;22.63;56.04
55317;BME280;41178;48.956;8.130;2023-06-22T06:31:02;99663.44;;;24.39;52.25
55317;BME280;41178;48.956;8.130;2023-06-22T06:36:08;99659.72;;;24.74;51.73
55317;BME280;41178;48.956;8.130;2023-06-22T06:41:10;99648.34;;;24.97;51.42
55317;BME280;41178;48.956;8.130;2023-06-22T06:46:12;99687.63;;;23.50;53.17
55317;BME280;41178;48.956;8.130;2023-06-22T06:51:14;99664.88;;;24.26;52.21
55317;BME280;41178;48.956;8.130;2023-06-22T06:56:16;99650.19;;;24.67;51.85
55317;BME280;41178;48.956;8.130;2023-06-22T07:01:18;99627.06;;;24.94;51.25
55317;BME280;41178;48.956;8.130;2023-06-22T07:06:23;99688.44;;;23.30;52.92
55317;BME280;41178;48.956;8.130;2023-06-22T07:11:29;99640.31;;;24.06;51.58
55317;BME280;41178;48.956;8.130;2023-06-22T07:16:31;99652.81;;;24.32;52.28
55317;BME280;41178;48.956;8.130;2023-06-22T07:21:33;99597.94;;;26.39;48.79
55317;BME280;41178;48.956;8.130;2023-06-22T07:26:34;99619.28;;;24.61;51.91
55317;BME280;41178;48.956;8.130;2023-06-22T07:31:36;99623.03;;;24.81;51.16
55317;BME280;41178;48.956;8.130;2023-06-22T07:36:38;99589.63;;;26.44;49.28
55317;BME280;41178;48.956;8.130;2023-06-22T07:41:40;99630.78;;;25.42;50.73
55317;BME280;41178;48.956;8.130;2023-06-22T07:46:42;99639.47;;;25.15;51.12
55317;BME280;41178;48.956;8.130;2023-06-22T07:51:44;99641.69;;;24.73;52.33
55317;BME280;41178;48.956;8.130;2023-06-22T07:56:46;99622.47;;;25.53;50.43
55317;BME280;41178;48.956;8.130;2023-06-22T08:01:48;99639.72;;;25.24;50.49
55317;BME280;41178;48.956;8.130;2023-06-22T08:06:50;99619.53;;;25.97;49.57
55317;BME280;41178;48.956;8.130;2023-06-22T08:11:52;99627.16;;;26.87;48.51
55317;BME280;41178;48.956;8.130;2023-06-22T08:16:54;99661.75;;;26.20;49.39
55317;BME280;41178;48.956;8.130;2023-06-22T08:21:56;99660.69;;;27.22;47.25
55317;BME280;41178;48.956;8.130;2023-06-22T08:26:59;99675.59;;;27.35;47.45
55317;BME280;41178;48.956;8.130;2023-06-22T08:32:01;99655.41;;;27.25;47.05
55317;BME280;41178;48.956;8.130;2023-06-22T08:37:02;99694.22;;;26.37;47.80
55317;BME280;41178;48.956;8.130;2023-06-22T08:42:07;99627.44;;;27.84;46.01
55317;BME280;41178;48.956;8.130;2023-06-22T08:47:09;99639.03;;;26.82;47.73
55317;BME280;41178;48.956;8.130;2023-06-22T08:52:11;99645.44;;;26.78;47.27
55317;BME280;41178;48.956;8.130;2023-06-22T08:57:13;99623.88;;;28.11;45.55
55317;BME280;41178;48.956;8.130;2023-06-22T09:02:15;99635.06;;;27.26;46.16
55317;BME280;41178;48.956;8.130;2023-06-22T09:07:16;99625.50;;;27.71;46.02
55317;BME280;41178;48.956;8.130;2023-06-22T09:12:23;99626.50;;;27.75;45.19
55317;BME280;41178;48.956;8.130;2023-06-22T09:17:28;99599.63;;;27.99;43.83
55317;BME280;41178;48.956;8.130;2023-06-22T09:22:30;99550.75;;;29.37;43.33
55317;BME280;41178;48.956;8.130;2023-06-22T09:27:32;99560.22;;;27.48;45.35
55317;BME280;41178;48.956;8.130;2023-06-22T09:32:33;99536.91;;;28.97;43.25
55317;BME280;41178;48.956;8.130;2023-06-22T09:37:35;99526.31;;;29.44;41.69
55317;BME280;41178;48.956;8.130;2023-06-22T09:42:38;99511.34;;;29.85;41.51
55317;BME280;41178;48.956;8.130;2023-06-22T09:47:39;99510.41;;;28.78;41.84
55317;BME280;41178;48.956;8.130;2023-06-22T09:52:42;99501.47;;;28.73;41.26
55317;BME280;41178;48.956;8.130;2023-06-22T09:57:49;99493.97;;;29.67;40.03
55317;BME280;41178;48.956;8.130;2023-06-22T10:02:51;99479.47;;;29.53;41.41
55317;BME280;41178;48.956;8.130;2023-06-22T10:07:53;99480.41;;;30.06;41.77
55317;BME280;41178;48.956;8.130;2023-06-22T10:12:56;99492.53;;;29.79;41.94
55317;BME280;41178;48.956;8.130;2023-06-22T10:17:58;99453.50;;;30.12;40.74
55317;BME280;41178;48.956;8.130;2023-06-22T10:23:00;99465.78;;;29.97;41.26
55317;BME280;41178;48.956;8.130;2023-06-22T10:28:02;99449.91;;;30.11;40.21
55317;BME280;41178;48.956;8.130;2023-06-22T10:33:04;99429.78;;;30.37;40.34
55317;BME280;41178;48.956;8.130;2023-06-22T10:38:06;99435.31;;;30.11;40.49
55317;BME280;41178;48.956;8.130;2023-06-22T10:43:08;99440.78;;;29.67;41.78
55317;BME280;41178;48.956;8.130;2023-06-22T10:48:10;99417.13;;;30.18;41.05
55317;BME280;41178;48.956;8.130;2023-06-22T10:53:12;99471.78;;;29.90;40.58
55317;BME280;41178;48.956;8.130;2023-06-22T10:58:13;99439.03;;;31.06;40.10
55317;BME280;41178;48.956;8.130;2023-06-22T11:06:22;99430.41;;;26.35;47.79
55317;BME280;41178;48.956;8.130;2023-06-22T11:11:25;99441.63;;;27.83;45.11
55317;BME280;41178;48.956;8.130;2023-06-22T11:16:27;99431.09;;;28.89;44.28
55317;BME280;41178;48.956;8.130;2023-06-22T11:21:29;99448.28;;;27.54;45.81
55317;BME280;41178;48.956;8.130;2023-06-22T11:26:31;99427.16;;;28.28;44.58
55317;BME280;41178;48.956;8.130;2023-06-22T11:31:34;99429.44;;;27.75;47.52
55317;BME280;41178;48.956;8.130;2023-06-22T11:36:36;99437.66;;;29.11;43.64
55317;BME280;41178;48.956;8.130;2023-06-22T11:41:38;99467.41;;;28.23;44.90
55317;BME280;41178;48.956;8.130;2023-06-22T11:46:40;99472.34;;;28.35;45.10
55317;BME280;41178;48.956;8.130;2023-06-22T11:51:41;99476.69;;;27.22;45.07
55317;BME280;41178;48.956;8.130;2023-06-22T11:56:43;99460.25;;;27.86;44.20
55317;BME280;41178;48.956;8.130;2023-06-22T12:01:45;99462.16;;;29.12;43.06
55317;BME280;41178;48.956;8.130;2023-06-22T12:06:47;99466.59;;;29.88;41.95
55317;BME280;41178;48.956;8.130;2023-06-22T12:11:49;99501.25;;;28.92;43.31
55317;BME280;41178;48.956;8.130;2023-06-22T12:16:51;99477.72;;;28.86;44.01
55317;BME280;41178;48.956;8.130;2023-06-22T12:21:53;99473.22;;;29.70;42.42
55317;BME280;41178;48.956;8.130;2023-06-22T12:26:54;99498.16;;;29.16;43.63
55317;BME280;41178;48.956;8.130;2023-06-22T12:31:57;99508.56;;;28.74;43.51
55317;BME280;41178;48.956;8.130;2023-06-22T12:36:58;99469.34;;;29.71;41.56
55317;BME280;41178;48.956;8.130;2023-06-22T12:42:00;99462.88;;;30.11;41.86
55317;BME280;41178;48.956;8.130;2023-06-22T12:47:02;99475.88;;;30.28;41.61
55317;BME280;41178;48.956;8.130;2023-06-22T12:52:13;99486.72;;;29.98;42.45
55317;BME280;41178;48.956;8.130;2023-06-22T12:57:15;99479.84;;;29.60;42.50
55317;BME280;41178;48.956;8.130;2023-06-22T13:02:17;99497.69;;;29.23;42.53
55317;BME280;41178;48.956;8.130;2023-06-22T13:07:19;99456.56;;;30.19;41.89
55317;BME280;41178;48.956;8.130;2023-06-22T13:12:24;99456.06;;;30.60;41.63
55317;BME280;41178;48.956;8.130;2023-06-22T13:17:26;99480.16;;;29.59;41.49
55317;BME280;41178;48.956;8.130;2023-06-22T13:27:30;99443.72;;;29.97;41.15
55317;BME280;41178;48.956;8.130;2023-06-22T13:32:32;99438.84;;;30.02;40.78
55317;BME280;41178;48.956;8.130;2023-06-22T13:37:34;99431.25;;;30.08;41.80
55317;BME280;41178;48.956;8.130;2023-06-22T13:42:36;99451.00;;;29.18;42.69
55317;BME280;41178;48.956;8.130;2023-06-22T13:47:37;99446.06;;;29.06;41.71
55317;BME280;41178;48.956;8.130;2023-06-22T13:52:39;99486.09;;;28.81;42.53
55317;BME280;41178;48.956;8.130;2023-06-22T13:57:42;99453.75;;;29.18;41.03
55317;BME280;41178;48.956;8.130;2023-06-22T14:02:44;99448.41;;;29.21;41.94
55317;BME280;41178;48.956;8.130;2023-06-22T14:07:46;99479.94;;;26.25;50.50
55317;BME280;41178;48.956;8.130;2023-06-22T14:12:48;99375.03;;;26.14;52.18
55317;BME280;41178;48.956;8.130;2023-06-22T14:17:49;99385.22;;;26.47;51.15
55317;BME280;41178;48.956;8.130;2023-06-22T14:22:51;99411.56;;;25.28;54.18
55317;BME280;41178;48.956;8.130;2023-06-22T14:27:53;99425.13;;;26.01;52.36
55317;BME280;41178;48.956;8.130;2023-06-22T14:32:55;99404.59;;;29.02;48.11
55317;BME280;41178;48.956;8.130;2023-06-22T14:37:57;99413.75;;;28.35;50.16
55317;BME280;41178;48.956;8.130;2023-06-22T14:42:58;99412.56;;;27.54;51.57
55317;BME280;41178;48.956;8.130;2023-06-22T14:48:00;99373.41;;;28.53;50.64
55317;BME280;41178;48.956;8.130;2023-06-22T14:53:02;99365.00;;;28.49;49.95
55317;BME280;41178;48.956;8.130;2023-06-22T14:58:04;99363.59;;;27.70;51.66
55317;BME280;41178;48.956;8.130;2023-06-22T15:03:05;99353.28;;;28.66;50.27
55317;BME280;41178;48.956;8.130;2023-06-22T15:08:09;99357.75;;;28.62;50.34
55317;BME280;41178;48.956;8.130;2023-06-22T15:13:12;99345.59;;;29.03;50.97
55317;BME280;41178;48.956;8.130;2023-06-22T15:18:15;99379.19;;;27.97;50.08
55317;BME280;41178;48.956;8.130;2023-06-22T15:23:16;99374.75;;;28.64;49.35
55317;BME280;41178;48.956;8.130;2023-06-22T15:28:18;99376.22;;;28.39;49.86
55317;BME280;41178;48.956;8.130;2023-06-22T15:33:20;99366.34;;;29.01;49.00
55317;BME280;41178;48.956;8.130;2023-06-22T15:38:22;99381.44;;;28.18;50.11
55317;BME280;41178;48.956;8.130;2023-06-22T15:43:23;99372.81;;;28.33;47.63
55317;BME280;41178;48.956;8.130;2023-06-22T15:48:25;99378.66;;;28.40;48.26
55317;BME280;41178;48.956;8.130;2023-06-22T15:53:28;99356.53;;;28.68;47.35
55317;BME280;41178;48.956;8.130;2023-06-22T15:58:30;99322.22;;;29.49;45.62
55317;BME280;41178;48.956;8.130;2023-06-22T16:03:32;99319.31;;;29.63;44.59
55317;BME280;41178;48.956;8.130;2023-06-22T16:08:33;99306.94;;;29.96;44.14
55317;BME280;41178;48.956;8.130;2023-06-22T16:13:35;99305.94;;;29.04;44.75
55317;BME280;41178;48.956;8.130;2023-06-22T16:18:37;99301.03;;;28.92;44.18
55317;BME280;41178;48.956;8.130;2023-06-22T16:23:39;99297.97;;;28.94;44.62
55317;BME280;41178;48.956;8.130;2023-06-22T16:28:41;99297.00;;;27.96;44.15
55317;BME280;41178;48.956;8.130;2023-06-22T16:33:42;99280.66;;;29.02;43.34
55317;BME280;41178;48.956;8.130;2023-06-22T16:38:48;99314.88;;;28.07;44.26
55317;BME280;41178;48.956;8.130;2023-06-22T16:43:51;99291.06;;;29.23;43.13
55317;BME280;41178;48.956;8.130;2023-06-22T16:48:53;99326.69;;;28.08;43.25
55317;BME280;41178;48.956;8.130;2023-06-22T16:53:55;99345.69;;;27.59;43.41
55317;BME280;41178;48.956;8.130;2023-06-22T16:58:58;99357.06;;;27.02;41.39
55317;BME280;41178;48.956;8.130;2023-06-22T17:04:09;99339.50;;;27.53;38.56
55317;BME280;41178;48.956;8.130;2023-06-22T17:09:14;99332.63;;;27.64;38.50
55317;BME280;41178;48.956;8.130;2023-06-22T17:14:15;99344.06;;;27.94;38.53
55317;BME280;41178;48.956;8.130;2023-06-22T17:19:18;99373.34;;;27.76;38.75
55317;BME280;41178;48.956;8.130;2023-06-22T17:24:20;99340.13;;;28.32;38.63
55317;BME280;41178;48.956;8.130;2023-06-22T17:29:31;99355.72;;;27.13;39.59
55317;BME280;41178;48.956;8.130;2023-06-22T17:34:35;99331.28;;;27.39;39.17
55317;BME280;41178;48.956;8.130;2023-06-22T17:39:37;99326.22;;;27.33;39.15
55317;BME280;41178;48.956;8.130;2023-06-22T17:44:40;99341.56;;;25.84;40.57
55317;BME280;41178;48.956;8.130;2023-06-22T17:49:43;99342.28;;;26.23;39.86
55317;BME280;41178;48.956;8.130;2023-06-22T17:54:44;99343.19;;;26.18;40.40
55317;BME280;41178;48.956;8.130;2023-06-22T18:00:07;99334.16;;;26.79;40.17
55317;BME280;41178;48.956;8.130;2023-06-22T18:05:12;99326.13;;;26.21;41.33
55317;BME280;41178;48.956;8.130;2023-06-22T18:10:14;99349.16;;;26.53;40.46
55317;BME280;41178;48.956;8.130;2023-06-22T18:15:16;99340.19;;;26.94;40.83
55317;BME280;41178;48.956;8.130;2023-06-22T18:20:18;99331.34;;;27.48;40.33
55317;BME280;41178;48.956;8.130;2023-06-22T18:25:23;99357.09;;;26.55;41.70
55317;BME280;41178;48.956;8.130;2023-06-22T18:30:25;99349.31;;;26.90;41.21
55317;BME280;41178;48.956;8.130;2023-06-22T18:35:28;99355.53;;;26.95;41.70
55317;BME280;41178;48.956;8.130;2023-06-22T18:40:31;99371.63;;;25.90;43.19
55317;BME280;41178;48.956;8.130;2023-06-22T18:45:33;99375.38;;;25.94;43.37
55317;BME280;41178;48.956;8.130;2023-06-22T18:50:45;99386.03;;;24.85;46.02
55317;BME280;41178;48.956;8.130;2023-06-22T18:55:50;99390.75;;;25.71;45.52
55317;BME280;41178;48.956;8.130;2023-06-22T19:01:15;99417.69;;;24.32;47.34
55317;BME280;41178;48.956;8.130;2023-06-22T19:06:53;99437.47;;;23.69;47.46
55317;BME280;41178;48.956;8.130;2023-06-22T19:17:18;99417.88;;;24.02;45.72
55317;BME280;41178;48.956;8.130;2023-06-22T19:22:23;99380.84;;;24.25;45.45
55317;BME280;41178;48.956;8.130;2023-06-22T19:27:48;99392.22;;;23.48;46.86
55317;BME280;41178;48.956;8.130;2023-06-22T19:32:52;99411.78;;;22.95;47.18
55317;BME280;41178;48.956;8.130;2023-06-22T19:37:54;99453.81;;;22.68;47.55
55317;BME280;41178;48.956;8.130;2023-06-22T19:42:56;99459.50;;;23.07;46.75
55317;BME280;41178;48.956;8.130;2023-06-22T19:47:58;99488.09;;;23.31;47.37
55317;BME280;41178;48.956;8.130;2023-06-22T19:53:00;99511.34;;;22.66;49.02
55317;BME280;41178;48.956;8.130;2023-06-22T19:58:02;99560.63;;;22.39;48.94
55317;BME280;41178;48.956;8.130;2023-06-22T20:03:07;99577.50;;;24.00;47.35
55317;BME280;41178;48.956;8.130;2023-06-22T20:08:15;99630.00;;;23.82;47.12
55317;BME280;41178;48.956;8.130;2023-06-22T20:13:20;99672.56;;;24.04;46.74
55317;BME280;41178;48.956;8.130;2023-06-22T20:18:22;99704.59;;;23.72;47.46
55317;BME280;41178;48.956;8.130;2023-06-22T20:23:24;99682.94;;;24.17;47.21
55317;BME280;41178;48.956;8.130;2023-06-22T20:28:26;99722.47;;;22.28;51.10
55317;BME280;41178;48.956;8.130;2023-06-22T20:33:28;99697.03;;;22.60;50.80
55317;BME280;41178;48.956;8.130;2023-06-22T20:38:30;99692.56;;;23.53;48.93
55317;BME280;41178;48.956;8.130;2023-06-22T20:43:34;99731.44;;;22.76;49.39
55317;BME280;41178;48.956;8.130;2023-06-22T20:48:36;99715.00;;;22.50;52.20
55317;BME280;41178;48.956;8.130;2023-06-22T20:53:40;99729.31;;;22.94;51.54
55317;BME280;41178;48.956;8.130;2023-06-22T20:58:42;99720.78;;;22.69;53.16
55317;BME280;41178;48.956;8.130;2023-06-22T21:03:43;99702.00;;;22.88;52.58
55317;BME280;41178;48.956;8.130;2023-06-22T21:08:45;99689.19;;;22.99;52.95
55317;BME280;41178;48.956;8.130;2023-06-22T21:13:47;99687.94;;;23.79;50.87
55317;BME280;41178;48.956;8.130;2023-06-22T21:18:49;99686.44;;;22.15;54.36
55317;BME280;41178;48.956;8.130;2023-06-22T21:23:50;99695.00;;;23.08;51.94
55317;BME280;41178;48.956;8.130;2023-06-22T21:28:52;99720.16;;;23.61;50.63
55317;BME280;41178;48.956;8.130;2023-06-22T21:33:54;99723.72;;;23.72;51.05
55317;BME280;41178;48.956;8.130;2023-06-22T21:38:56;99748.16;;;23.00;52.14
55317;BME280;41178;48.956;8.130;2023-06-22T21:43:57;99773.34;;;21.79;54.93
55317;BME280;41178;48.956;8.130;2023-06-22T21:48:59;99750.50;;;22.66;52.67
55317;BME280;41178;48.956;8.130;2023-06-22T21:54:01;99730.56;;;22.60;53.50
55317;BME280;41178;48.956;8.130;2023-06-22T21:59:03;99741.66;;;22.48;53.65
55317;BME280;41178;48.956;8.130;2023-06-22T22:04:05;99764.66;;;22.63;53.14
55317;BME280;41178;48.956;8.130;2023-06-22T22:09:08;99784.22;;;21.79;55.32
55317;BME280;41178;48.956;8.130;2023-06-22T22:14:10;99765.13;;;23.13;52.58
55317;BME280;41178;48.956;8.130;2023-06-22T22:19:12;99818.31;;;21.82;54.91
55317;BME280;41178;48.956;8.130;2023-06-22T22:24:16;99765.97;;;23.13;52.53
55317;BME280;41178;48.956;8.130;2023-06-22T22:29:18;99803.00;;;20.99;56.54
55317;BME280;41178;48.956;8.130;2023-06-22T22:34:19;99814.78;;;21.82;55.07
55317;BME280;41178;48.956;8.130;2023-06-22T22:44:32;99796.28;;;21.29;56.92
55317;BME280;41178;48.956;8.130;2023-06-22T22:49:34;99826.22;;;22.16;54.05
55317;BME280;41178;48.956;8.130;2023-06-22T22:54:36;99808.94;;;22.38;53.79
55317;BME280;41178;48.956;8.130;2023-06-22T22:59:38;99839.88;;;21.89;54.05
55317;BME280;41178;48.956;8.130;2023-06-22T23:04:40;99793.06;;;22.72;53.11
55317;BME280;41178;48.956;8.130;2023-06-22T23:09:42;99851.75;;;21.28;55.94
55317;BME280;41178;48.956;8.130;2023-06-22T23:14:44;99825.88;;;22.45;53.51
55317;BME280;41178;48.956;8.130;2023-06-22T23:19:46;99810.72;;;23.12;52.47
55317;BME280;41178;48.956;8.130;2023-06-22T23:24:48;99859.94;;;21.28;56.03
55317;BME280;41178;48.956;8.130;2023-06-22T23:29:49;99877.00;;;20.62;56.25
55317;BME280;41178;48.956;8.130;2023-06-22T23:34:52;99847.22;;;21.12;54.45
55317;BME280;41178;48.956;8.130;2023-06-22T23:39:53;99880.56;;;18.90;56.64
55317;BME280;41178;48.956;8.130;2023-06-22T23:44:55;99891.88;;;18.52;57.14
55317;BME280;41178;48.956;8.130;2023-06-22T23:49:57;99925.09;;;18.05;57.65
55317;BME280;41178;48.956;8.130;2023-06-22T23:54:59;99924.16;;;17.99;58.58
